createdAt,value
2023-06-15T00:02:23.506Z,13.41
2023-06-15T00:04:51.717Z,13.38
2023-06-15T00:07:19.025Z,13.34
2023-06-15T00:09:46.107Z,13.32
2023-06-15T00:22:50.068Z,13.19
2023-06-15T00:25:17.259Z,13.16
2023-06-15T00:27:44.720Z,13.13
2023-06-15T00:30:13.429Z,13.10
2023-06-15T00:32:40.945Z,13.06
2023-06-15T00:35:08.771Z,13.03
2023-06-15T00:37:36.081Z,13.00
2023-06-15T00:40:06.536Z,12.98
2023-06-15T00:42:33.944Z,12.96
2023-06-15T00:45:01.978Z,12.94
2023-06-15T00:47:29.224Z,12.93
2023-06-15T00:49:58.203Z,12.92
2023-06-15T00:52:26.335Z,12.90
2023-06-15T00:54:53.504Z,12.89
2023-06-15T00:57:25.029Z,12.87
2023-06-15T00:59:52.133Z,12.83
2023-06-15T01:02:19.282Z,12.81
2023-06-15T01:04:46.460Z,12.80
2023-06-15T01:07:13.636Z,12.78
2023-06-15T01:09:43.488Z,12.77
2023-06-15T01:12:13.021Z,12.77
2023-06-15T01:14:41.429Z,12.77
2023-06-15T01:17:16.398Z,12.76
2023-06-15T01:20:04.848Z,12.76
2023-06-15T01:22:58.399Z,12.76
2023-06-15T01:25:44.901Z,12.79
2023-06-15T01:28:18.263Z,12.80
2023-06-15T01:30:49.323Z,12.81
2023-06-15T01:33:16.790Z,12.83
2023-06-15T01:35:44.160Z,12.84
2023-06-15T01:38:12.759Z,12.86
2023-06-15T01:40:50.498Z,12.88
2023-06-15T01:43:26.391Z,12.90
2023-06-15T01:45:56.060Z,12.92
2023-06-15T01:48:26.222Z,12.93
2023-06-15T01:50:54.638Z,12.95
2023-06-15T01:53:22.812Z,12.96
2023-06-15T01:55:50.954Z,12.98
2023-06-15T01:58:18.090Z,13.01
2023-06-15T02:00:47.534Z,13.04
2023-06-15T02:03:15.377Z,13.08
2023-06-15T02:05:42.523Z,13.11
2023-06-15T02:08:11.626Z,13.13
2023-06-15T02:10:39.798Z,13.14
2023-06-15T02:13:09.048Z,13.15
2023-06-15T02:15:37.189Z,13.17
2023-06-15T02:18:12.446Z,13.19
2023-06-15T02:20:44.341Z,13.21
2023-06-15T02:23:12.164Z,13.22
2023-06-15T02:25:39.659Z,13.23
2023-06-15T02:28:06.956Z,13.24
2023-06-15T02:30:34.204Z,13.24
2023-06-15T02:33:01.909Z,13.25
2023-06-15T02:35:29.343Z,13.27
2023-06-15T02:37:56.625Z,13.29
2023-06-15T02:40:24.537Z,13.31
2023-06-15T02:42:51.773Z,13.33
2023-06-15T02:45:19.526Z,13.36
2023-06-15T02:47:47.811Z,13.37
2023-06-15T02:50:15.128Z,13.39
2023-06-15T02:52:45.627Z,13.41
2023-06-15T02:55:13.995Z,13.40
2023-06-15T02:57:42.092Z,13.40
2023-06-15T03:00:14.552Z,13.41
2023-06-15T03:02:43.757Z,13.42
2023-06-15T03:07:53.993Z,13.45
2023-06-15T03:10:21.232Z,13.47
2023-06-15T03:12:48.380Z,13.49
2023-06-15T03:15:17.599Z,13.50
2023-06-15T03:17:45.255Z,13.52
2023-06-15T03:20:12.474Z,13.52
2023-06-15T03:22:40.255Z,13.53
2023-06-15T03:25:11.470Z,13.55
2023-06-15T03:27:41.292Z,13.56
2023-06-15T03:30:11.235Z,13.58
2023-06-15T03:32:38.664Z,13.58
2023-06-15T03:35:08.289Z,13.58
2023-06-15T03:37:36.154Z,13.59
2023-06-15T03:40:06.349Z,13.59
2023-06-15T03:42:33.785Z,13.59
2023-06-15T03:45:01.337Z,13.58
2023-06-15T03:47:28.597Z,13.60
2023-06-15T03:49:56.033Z,13.62
2023-06-15T03:52:23.222Z,13.65
2023-06-15T03:54:50.412Z,13.65
2023-06-15T03:57:18.107Z,13.68
2023-06-15T03:59:45.147Z,13.70
2023-06-15T04:02:12.216Z,13.73
2023-06-15T04:04:40.374Z,13.77
2023-06-15T04:07:09.469Z,13.82
2023-06-15T04:09:38.448Z,13.86
2023-06-15T04:12:06.174Z,13.92
2023-06-15T04:14:33.412Z,13.96
2023-06-15T04:17:01.010Z,13.99
2023-06-15T04:19:28.272Z,14.05
2023-06-15T04:21:55.994Z,14.09
2023-06-15T04:24:24.363Z,14.12
2023-06-15T04:26:51.662Z,14.17
2023-06-15T04:29:19.708Z,14.23
2023-06-15T04:31:55.732Z,14.29
2023-06-15T04:34:23.006Z,14.35
2023-06-15T04:52:17.589Z,15.22
2023-06-15T04:54:44.583Z,15.45
2023-06-15T04:57:11.859Z,15.54
2023-06-15T04:59:39.212Z,15.65
2023-06-15T05:02:07.497Z,15.74
2023-06-15T05:04:35.031Z,15.84
2023-06-15T05:07:02.199Z,15.93
2023-06-15T05:09:29.467Z,16.02
2023-06-15T05:11:57.456Z,16.08
2023-06-15T05:14:26.769Z,16.17
2023-06-15T05:16:54.387Z,16.24
2023-06-15T05:19:21.524Z,16.31
2023-06-15T05:21:50.767Z,16.36
2023-06-15T05:24:21.536Z,16.43
2023-06-15T05:27:14.321Z,16.48
2023-06-15T05:29:41.575Z,16.53
2023-06-15T05:32:08.816Z,16.57
2023-06-15T05:34:36.040Z,16.60
2023-06-15T05:37:03.392Z,16.65
2023-06-15T05:39:32.879Z,16.72
2023-06-15T05:42:01.717Z,16.79
2023-06-15T05:44:28.887Z,16.85
2023-06-15T05:46:56.012Z,16.89
2023-06-15T05:49:23.393Z,16.91
2023-06-15T05:51:50.816Z,16.93
2023-06-15T05:54:19.362Z,16.92
2023-06-15T05:56:46.488Z,16.90
2023-06-15T05:59:27.688Z,16.94
2023-06-15T06:01:58.746Z,16.98
2023-06-15T06:04:25.722Z,17.02
2023-06-15T06:06:54.795Z,17.04
2023-06-15T06:09:21.981Z,17.08
2023-06-15T06:11:49.141Z,17.12
2023-06-15T06:14:16.504Z,17.19
2023-06-15T06:16:44.284Z,17.27
2023-06-15T06:19:11.612Z,17.36
2023-06-15T06:21:38.672Z,17.42
2023-06-15T06:24:06.307Z,17.49
2023-06-15T06:26:36.256Z,17.58
2023-06-15T06:29:04.028Z,17.66
2023-06-15T06:31:31.363Z,17.75
2023-06-15T06:33:58.379Z,17.84
2023-06-15T06:36:28.632Z,17.96
2023-06-15T06:39:02.620Z,18.11
2023-06-15T06:41:31.829Z,18.24
2023-06-15T06:43:59.077Z,18.36
2023-06-15T06:46:26.151Z,18.44
2023-06-15T06:48:53.427Z,18.54
2023-06-15T06:51:20.676Z,18.65
2023-06-15T06:53:47.907Z,18.74
2023-06-15T06:56:15.258Z,18.79
2023-06-15T06:58:42.570Z,18.83
2023-06-15T07:01:09.868Z,18.87
2023-06-15T07:03:39.575Z,18.89
2023-06-15T07:06:06.910Z,18.92
2023-06-15T07:08:35.145Z,18.96
2023-06-15T07:11:03.329Z,19.01
2023-06-15T07:13:30.339Z,19.08
2023-06-15T07:15:58.257Z,19.16
2023-06-15T07:18:26.318Z,19.23
2023-06-15T07:20:56.398Z,19.33
2023-06-15T07:23:25.498Z,19.45
2023-06-15T07:25:53.709Z,19.62
2023-06-15T07:28:21.207Z,19.78
2023-06-15T07:30:51.369Z,19.83
2023-06-15T07:33:21.478Z,19.99
2023-06-15T07:35:48.834Z,20.08
2023-06-15T07:38:16.036Z,20.23
2023-06-15T07:40:43.509Z,20.41
2023-06-15T07:43:10.986Z,20.56
2023-06-15T07:45:38.161Z,20.69
2023-06-15T07:48:06.237Z,20.86
2023-06-15T07:50:33.885Z,21.05
2023-06-15T07:53:00.959Z,21.21
2023-06-15T07:55:28.069Z,21.32
2023-06-15T07:57:55.134Z,21.51
2023-06-15T08:00:23.063Z,21.64
2023-06-15T08:02:51.668Z,21.71
2023-06-15T08:05:18.916Z,21.72
2023-06-15T08:07:45.923Z,21.70
2023-06-15T08:10:13.206Z,21.66
2023-06-15T08:12:40.472Z,21.62
2023-06-15T08:15:07.861Z,21.49
2023-06-15T08:17:37.647Z,21.34
2023-06-15T08:20:07.943Z,21.17
2023-06-15T08:22:35.416Z,21.01
2023-06-15T08:25:03.734Z,20.87
2023-06-15T08:27:30.993Z,20.75
2023-06-15T08:29:57.982Z,20.64
2023-06-15T08:32:25.042Z,20.54
2023-06-15T08:34:52.672Z,20.44
2023-06-15T08:37:19.726Z,20.32
2023-06-15T08:39:48.064Z,20.22
2023-06-15T08:42:18.134Z,20.10
2023-06-15T08:44:50.409Z,20.03
2023-06-15T08:47:17.623Z,19.99
2023-06-15T08:49:45.106Z,19.90
2023-06-15T08:52:16.576Z,19.74
2023-06-15T08:54:44.262Z,19.60
2023-06-15T08:57:11.406Z,19.54
2023-06-15T08:59:42.107Z,19.49
2023-06-15T09:02:20.027Z,19.45
2023-06-15T09:04:53.042Z,19.47
2023-06-15T09:07:24.591Z,19.49
2023-06-15T09:10:22.611Z,19.52
2023-06-15T09:12:56.121Z,19.62
2023-06-15T09:15:28.592Z,19.72
2023-06-15T09:18:01.621Z,19.83
2023-06-15T09:20:32.114Z,19.96
2023-06-15T09:23:06.865Z,20.10
2023-06-15T09:25:36.904Z,20.23
2023-06-15T09:28:10.285Z,20.35
2023-06-15T09:30:40.865Z,20.43
2023-06-15T09:33:19.607Z,20.44
2023-06-15T09:35:58.001Z,20.39
2023-06-15T09:38:40.883Z,20.37
2023-06-15T09:41:09.665Z,20.42
2023-06-15T09:43:41.653Z,20.49
2023-06-15T09:46:14.676Z,20.59
2023-06-15T09:48:44.863Z,20.71
2023-06-15T09:51:12.156Z,20.83
2023-06-15T09:53:40.506Z,20.96
2023-06-15T09:56:25.331Z,21.09
2023-06-15T09:58:59.839Z,21.31
2023-06-15T10:01:31.869Z,21.49
2023-06-15T10:04:06.177Z,21.68
2023-06-15T10:06:37.651Z,21.91
2023-06-15T10:09:14.051Z,22.10
2023-06-15T10:11:46.528Z,22.28
2023-06-15T10:14:24.526Z,22.52
2023-06-15T10:17:01.771Z,22.79
2023-06-15T10:19:33.461Z,23.11
2023-06-15T10:22:02.446Z,23.44
2023-06-15T10:24:37.583Z,23.90
2023-06-15T10:27:07.196Z,24.28
2023-06-15T10:30:24.370Z,24.61
2023-06-15T10:33:30.585Z,25.21
2023-06-15T10:36:11.240Z,25.84
2023-06-15T10:38:48.081Z,26.31
2023-06-15T10:41:15.572Z,26.71
2023-06-15T10:44:00.047Z,26.96
2023-06-15T10:46:37.172Z,27.03
2023-06-15T10:49:08.088Z,27.00
2023-06-15T10:51:40.312Z,27.20
2023-06-15T10:54:23.547Z,27.40
2023-06-15T10:56:54.937Z,27.43
2023-06-15T10:59:55.646Z,27.38
2023-06-15T11:02:29.018Z,27.23
2023-06-15T11:05:09.651Z,27.09
2023-06-15T11:07:39.640Z,27.03
2023-06-15T11:10:17.530Z,27.02
2023-06-15T11:12:47.332Z,26.93
2023-06-15T11:15:16.820Z,26.85
2023-06-15T11:18:01.352Z,26.84
2023-06-15T11:20:48.008Z,26.86
2023-06-15T11:23:19.745Z,26.90
2023-06-15T11:25:49.394Z,27.05
2023-06-15T11:28:35.910Z,27.24
2023-06-15T11:31:06.792Z,27.51
2023-06-15T11:33:37.172Z,27.74
2023-06-15T11:36:07.497Z,27.91
2023-06-15T11:38:35.775Z,28.08
2023-06-15T11:41:10.078Z,28.17
2023-06-15T11:43:48.678Z,28.18
2023-06-15T11:46:21.472Z,28.02
2023-06-15T11:48:54.239Z,27.96
2023-06-15T11:51:21.539Z,27.72
2023-06-15T11:53:48.778Z,27.34
2023-06-15T11:56:17.366Z,27.06
2023-06-15T11:58:47.955Z,26.93
2023-06-15T12:01:18.473Z,27.01
2023-06-15T12:06:24.409Z,27.28
2023-06-15T12:08:55.298Z,27.33
2023-06-15T12:11:24.921Z,27.48
2023-06-15T12:14:09.669Z,27.76
2023-06-15T12:16:38.935Z,28.16
2023-06-15T12:19:09.489Z,28.62
2023-06-15T12:21:39.291Z,29.11
2023-06-15T12:24:18.612Z,29.59
2023-06-15T12:26:52.589Z,29.81
2023-06-15T12:29:22.579Z,29.83
2023-06-15T12:31:52.729Z,29.97
2023-06-15T12:34:24.550Z,29.99
2023-06-15T12:36:53.079Z,30.15
2023-06-15T12:39:25.540Z,30.64
2023-06-15T12:41:58.590Z,31.14
2023-06-15T12:44:25.862Z,31.44
2023-06-15T12:51:47.890Z,32.10
2023-06-15T12:54:16.518Z,32.48
2023-06-15T12:56:44.972Z,32.78
2023-06-15T12:59:13.437Z,32.93
2023-06-15T13:01:42.089Z,33.13
2023-06-15T13:04:14.271Z,33.33
2023-06-15T13:06:42.943Z,33.59
2023-06-15T13:09:11.688Z,33.93
2023-06-15T13:11:41.781Z,34.39
2023-06-15T13:14:10.398Z,34.73
2023-06-15T13:16:39.041Z,35.05
2023-06-15T13:19:09.490Z,35.27
2023-06-15T13:21:38.297Z,35.56
2023-06-15T13:24:06.818Z,36.16
2023-06-15T13:26:35.453Z,36.62
2023-06-15T13:29:04.248Z,36.74
2023-06-15T13:31:32.834Z,36.60
2023-06-15T13:34:01.555Z,36.57
2023-06-15T13:36:30.141Z,36.49
2023-06-15T13:38:58.863Z,36.13
2023-06-15T13:41:29.647Z,35.34
2023-06-15T13:43:58.958Z,34.55
2023-06-15T13:46:28.911Z,33.71
2023-06-15T13:48:58.190Z,32.99
2023-06-15T13:51:26.942Z,32.37
2023-06-15T13:53:55.784Z,31.74
2023-06-15T13:56:37.268Z,31.05
2023-06-15T13:59:06.108Z,30.42
2023-06-15T14:01:36.702Z,29.83
2023-06-15T14:04:08.468Z,29.25
2023-06-15T14:06:47.103Z,28.88
2023-06-15T14:09:18.735Z,28.44
2023-06-15T14:11:47.215Z,28.01
2023-06-15T14:14:15.700Z,27.63
2023-06-15T14:16:44.473Z,27.26
2023-06-15T14:19:14.122Z,27.00
2023-06-15T14:21:45.361Z,26.80
2023-06-15T14:24:14.283Z,26.64
2023-06-15T14:26:43.303Z,26.55
2023-06-15T14:29:16.353Z,26.51
2023-06-15T14:31:50.796Z,26.44
2023-06-15T14:34:22.554Z,26.35
2023-06-15T14:36:51.833Z,26.38
2023-06-15T14:39:21.909Z,26.45
2023-06-15T14:41:50.494Z,26.55
2023-06-15T14:44:19.155Z,26.80
2023-06-15T14:46:48.268Z,27.24
2023-06-15T14:49:16.791Z,27.83
2023-06-15T14:51:45.308Z,28.64
2023-06-15T14:54:13.731Z,29.54
2023-06-15T14:56:42.678Z,30.48
2023-06-15T14:59:11.497Z,31.45
2023-06-15T15:01:42.535Z,32.37
2023-06-15T15:04:11.819Z,32.98
2023-06-15T15:06:40.818Z,33.39
2023-06-15T15:09:09.411Z,32.94
2023-06-15T15:11:38.079Z,32.36
2023-06-15T15:14:25.233Z,32.16
2023-06-15T15:16:57.944Z,32.68
2023-06-15T15:19:26.417Z,33.39
2023-06-15T15:21:55.349Z,34.09
2023-06-15T15:24:24.612Z,34.67
2023-06-15T15:26:53.074Z,34.53
2023-06-15T15:29:21.568Z,34.62
2023-06-15T15:31:50.063Z,34.87
2023-06-15T15:34:19.023Z,35.22
2023-06-15T15:36:49.720Z,35.66
2023-06-15T15:39:18.394Z,35.88
2023-06-15T15:41:47.645Z,35.97
2023-06-15T15:44:19.464Z,36.24
2023-06-15T15:46:48.682Z,36.53
2023-06-15T15:49:17.580Z,36.71
2023-06-15T15:51:46.238Z,37.01
2023-06-15T15:54:14.913Z,37.21
2023-06-15T15:56:43.432Z,37.55
2023-06-15T15:59:12.181Z,37.72
2023-06-15T16:01:40.937Z,38.09
2023-06-15T16:04:09.635Z,38.56
2023-06-15T16:06:38.200Z,38.98
2023-06-15T16:09:07.096Z,39.33
2023-06-15T16:11:36.656Z,39.66
2023-06-15T16:14:06.457Z,39.78
2023-06-15T16:16:35.329Z,39.91
2023-06-15T16:19:04.062Z,40.04
2023-06-15T16:21:32.817Z,40.15
2023-06-15T16:24:01.698Z,40.26
2023-06-15T16:26:30.450Z,40.32
2023-06-15T16:28:59.672Z,40.46
2023-06-15T16:31:28.319Z,40.64
2023-06-15T16:33:57.435Z,40.70
2023-06-15T16:36:26.361Z,40.92
2023-06-15T16:39:05.516Z,41.27
2023-06-15T16:41:36.971Z,41.69
2023-06-15T16:44:06.966Z,41.88
2023-06-15T16:46:35.871Z,41.75
2023-06-15T16:49:07.582Z,41.72
2023-06-15T16:51:37.345Z,41.67
2023-06-15T16:54:06.151Z,41.43
2023-06-15T16:56:35.768Z,41.32
2023-06-15T16:59:04.283Z,41.23
2023-06-15T17:01:33.575Z,41.13
2023-06-15T17:04:02.489Z,40.95
2023-06-15T17:06:31.179Z,40.88
2023-06-15T17:08:59.917Z,40.82
2023-06-15T17:11:28.417Z,40.90
2023-06-15T17:14:02.442Z,40.95
2023-06-15T17:16:31.092Z,40.84
2023-06-15T17:18:59.557Z,40.85
2023-06-15T17:21:31.434Z,41.00
2023-06-15T17:23:59.970Z,41.18
2023-06-15T17:26:28.572Z,41.23
2023-06-15T17:28:57.142Z,41.17
2023-06-15T17:31:29.044Z,41.04
2023-06-15T17:33:57.583Z,40.91
2023-06-15T17:36:26.693Z,40.74
2023-06-15T17:38:55.599Z,40.44
2023-06-15T17:41:24.869Z,40.18
2023-06-15T17:43:54.253Z,40.03
2023-06-15T17:46:23.194Z,39.81
2023-06-15T17:48:51.867Z,39.61
2023-06-15T17:51:20.689Z,39.35
2023-06-15T17:53:49.753Z,39.09
2023-06-15T17:56:18.313Z,38.82
2023-06-15T17:58:47.284Z,38.48
2023-06-15T18:01:16.770Z,38.06
2023-06-15T18:03:45.547Z,37.70
2023-06-15T18:06:14.207Z,37.38
2023-06-15T18:08:43.393Z,37.01
2023-06-15T18:11:11.939Z,36.63
2023-06-15T18:13:40.819Z,35.91
2023-06-15T18:16:09.524Z,34.89
2023-06-15T18:18:38.162Z,33.83
2023-06-15T18:21:07.143Z,32.86
2023-06-15T18:23:35.642Z,31.94
2023-06-15T18:26:06.826Z,31.01
2023-06-15T18:28:38.278Z,30.23
2023-06-15T18:31:07.300Z,29.43
2023-06-15T18:33:36.370Z,28.68
2023-06-15T18:36:05.177Z,27.95
2023-06-15T18:38:34.658Z,27.35
2023-06-15T18:41:03.653Z,26.74
2023-06-15T18:43:32.126Z,26.14
2023-06-15T18:46:01.066Z,25.57
2023-06-15T18:48:29.496Z,25.04
2023-06-15T18:50:57.970Z,24.54
2023-06-15T18:53:28.443Z,24.08
2023-06-15T18:55:58.027Z,23.63
2023-06-15T18:58:27.024Z,23.20
2023-06-15T19:00:55.761Z,22.79
2023-06-15T19:03:25.110Z,22.39
2023-06-15T19:05:55.696Z,21.98
2023-06-15T19:08:24.419Z,21.64
2023-06-15T19:10:52.837Z,21.39
2023-06-15T19:13:24.185Z,21.16
2023-06-15T19:15:53.397Z,20.94
2023-06-15T19:18:22.232Z,20.73
2023-06-15T19:20:52.052Z,20.55
2023-06-15T19:23:21.193Z,20.39
2023-06-15T19:25:53.704Z,20.22
2023-06-15T19:28:22.613Z,20.06
2023-06-15T19:30:51.249Z,19.89
2023-06-15T19:33:25.677Z,19.74
2023-06-15T19:35:55.426Z,19.59
2023-06-15T19:38:23.981Z,19.43
2023-06-15T19:40:59.287Z,19.27
2023-06-15T19:43:28.339Z,19.10
2023-06-15T19:46:02.171Z,18.94
2023-06-15T19:48:31.040Z,18.78
2023-06-15T19:50:59.882Z,18.64
2023-06-15T19:53:31.928Z,18.50
2023-06-15T19:56:11.147Z,18.37
2023-06-15T19:58:40.166Z,18.23
2023-06-15T20:01:08.837Z,18.11
2023-06-15T20:03:37.881Z,17.98
2023-06-15T20:06:10.160Z,17.87
2023-06-15T20:08:39.498Z,17.77
2023-06-15T20:11:10.555Z,17.68
2023-06-15T20:13:39.198Z,17.53
2023-06-15T20:16:15.245Z,17.42
2023-06-15T20:18:51.230Z,17.32
2023-06-15T20:21:22.051Z,17.25
2023-06-15T20:23:50.874Z,17.17
2023-06-15T20:26:19.519Z,17.09
2023-06-15T20:31:36.012Z,16.92
2023-06-15T20:34:04.628Z,16.84
2023-06-15T20:36:34.493Z,16.75
2023-06-15T20:39:04.802Z,16.63
2023-06-15T20:41:33.259Z,16.53
2023-06-15T20:44:01.676Z,16.44
2023-06-15T20:46:31.758Z,16.35
2023-06-15T20:49:01.555Z,16.28
2023-06-15T20:51:30.128Z,16.22
2023-06-15T20:53:59.522Z,16.15
2023-06-15T20:56:27.930Z,16.08
2023-06-15T20:58:56.300Z,16.02
2023-06-15T21:01:24.888Z,15.95
2023-06-15T21:03:53.334Z,15.89
2023-06-15T21:06:21.857Z,15.82
2023-06-15T21:08:51.584Z,15.78
2023-06-15T21:11:20.219Z,15.75
2023-06-15T21:13:50.576Z,15.66
2023-06-15T21:16:19.325Z,15.55
2023-06-15T21:18:47.846Z,15.43
2023-06-15T21:21:16.315Z,15.34
2023-06-15T21:23:45.595Z,15.27
2023-06-15T21:26:14.501Z,15.19
2023-06-15T21:28:43.128Z,15.10
2023-06-15T21:31:11.660Z,15.00
2023-06-15T21:33:40.054Z,14.94
2023-06-15T21:36:08.682Z,14.90
2023-06-15T21:38:37.178Z,14.85
2023-06-15T21:41:06.129Z,14.79
2023-06-15T21:43:39.404Z,14.73
2023-06-15T21:46:08.037Z,14.69
2023-06-15T21:48:36.590Z,14.67
2023-06-15T21:51:05.349Z,14.66
2023-06-15T21:53:33.843Z,14.66
2023-06-15T21:56:02.259Z,14.64
2023-06-15T21:58:31.189Z,14.62
2023-06-15T22:00:59.723Z,14.58
2023-06-15T22:03:28.503Z,14.55
2023-06-15T22:05:57.054Z,14.52
2023-06-15T22:08:25.646Z,14.45
2023-06-15T22:10:54.234Z,14.36
2023-06-15T22:13:22.713Z,14.28
2023-06-15T22:15:55.745Z,14.19
2023-06-15T22:18:27.222Z,14.11
2023-06-15T22:20:58.847Z,14.06
2023-06-15T22:23:28.705Z,14.01
2023-06-15T22:25:57.450Z,13.97
2023-06-15T22:28:26.274Z,13.95
2023-06-15T22:30:54.770Z,13.92
2023-06-15T22:33:24.915Z,13.91
2023-06-15T22:35:53.716Z,13.89
2023-06-15T22:38:22.673Z,13.87
2023-06-15T22:40:51.699Z,13.86
2023-06-15T22:43:20.328Z,13.85
2023-06-15T22:45:48.867Z,13.83
2023-06-15T22:48:23.943Z,13.82
2023-06-15T22:50:58.586Z,13.81
2023-06-15T22:53:27.107Z,13.78
2023-06-15T22:55:56.185Z,13.76
2023-06-15T22:58:24.860Z,13.73
2023-06-15T23:00:55.125Z,13.71
2023-06-15T23:03:23.832Z,13.69
2023-06-15T23:05:52.305Z,13.68
2023-06-15T23:08:23.750Z,13.67
2023-06-15T23:10:54.108Z,13.65
2023-06-15T23:13:22.775Z,13.64
2023-06-15T23:15:56.939Z,13.61
2023-06-15T23:18:28.178Z,13.56
2023-06-15T23:21:00.244Z,13.51
2023-06-15T23:23:35.133Z,13.45
2023-06-15T23:26:06.748Z,13.40
2023-06-15T23:28:39.114Z,13.36
2023-06-15T23:31:08.476Z,13.33
2023-06-15T23:33:37.098Z,13.29
2023-06-15T23:36:09.812Z,13.24
2023-06-15T23:38:38.283Z,13.18
2023-06-15T23:41:10.612Z,13.13
2023-06-15T23:43:41.771Z,13.08
2023-06-15T23:46:32.982Z,13.04
2023-06-15T23:49:04.341Z,13.00
2023-06-15T23:51:32.887Z,12.98
